TimeCST,TemperatureF,Dew PointF,Humidity,Sea Level PressureIn,VisibilityMPH,Wind Direction,Wind SpeedMPH,Gust SpeedMPH,PrecipitationIn,Events,Conditions,WindDirDegrees,DateUTC
12:15 AM,28.4,22.1,77,30.15,10.0,South,13.8,-,N/A,,Clear,190,2013-01-07 06:15:00
12:35 AM,27.5,21.7,79,30.14,10.0,South,11.5,-,N/A,,Clear,190,2013-01-07 06:35:00
12:55 AM,28.4,21.9,77,30.14,10.0,South,13.8,-,N/A,,Clear,190,2013-01-07 06:55:00
1:15 AM,29.3,22.1,75,30.13,10.0,South,13.8,-,N/A,,Clear,190,2013-01-07 07:15:00
1:35 AM,29.3,22.1,75,30.13,10.0,South,16.1,-,N/A,,Clear,190,2013-01-07 07:35:00
1:55 AM,29.3,22.1,75,30.13,10.0,SSW,13.8,-,N/A,,Clear,200,2013-01-07 07:55:00
2:15 AM,30.2,22.1,72,30.13,10.0,South,17.3,-,N/A,,Clear,190,2013-01-07 08:15:00
2:35 AM,28.9,21.9,75,30.13,10.0,South,13.8,-,N/A,,Clear,190,2013-01-07 08:35:00
2:55 AM,29.3,22.1,75,30.12,10.0,South,15.0,-,N/A,,Clear,190,2013-01-07 08:55:00
3:15 AM,28.8,21.9,76,30.12,10.0,South,12.7,-,N/A,,Clear,190,2013-01-07 09:15:00
3:35 AM,29.8,22.3,73,30.11,10.0,South,13.8,-,N/A,,Clear,190,2013-01-07 09:35:00
3:55 AM,28.4,21.7,76,30.11,10.0,South,12.7,-,N/A,,Clear,180,2013-01-07 09:55:00
4:15 AM,28.0,21.6,77,30.11,10.0,South,10.4,-,N/A,,Clear,190,2013-01-07 10:15:00
4:35 AM,27.7,21.6,78,30.10,10.0,South,10.4,-,N/A,,Clear,180,2013-01-07 10:35:00
4:55 AM,28.4,21.9,77,30.09,10.0,South,15.0,-,N/A,,Clear,180,2013-01-07 10:55:00
5:15 AM,28.4,21.7,76,30.08,10.0,South,15.0,-,N/A,,Clear,180,2013-01-07 11:15:00
5:35 AM,28.2,21.9,77,30.07,10.0,South,15.0,-,N/A,,Clear,180,2013-01-07 11:35:00
5:55 AM,30.0,22.8,75,30.06,10.0,South,17.3,-,N/A,,Clear,190,2013-01-07 11:55:00
6:15 AM,31.1,23.0,72,30.04,10.0,South,20.7,26.5,N/A,,Clear,180,2013-01-07 12:15:00
6:35 AM,32.0,23.0,69,30.03,10.0,South,20.7,-,N/A,,Clear,190,2013-01-07 12:35:00
6:55 AM,32.2,23.0,69,30.03,10.0,South,19.6,29.9,N/A,,Clear,190,2013-01-07 12:55:00
7:15 AM,32.0,23.0,69,30.04,10.0,South,17.3,23.0,N/A,,Clear,190,2013-01-07 13:15:00
7:35 AM,32.0,23.0,69,30.05,10.0,SSW,12.7,-,N/A,,Clear,200,2013-01-07 13:35:00
7:55 AM,31.1,23.0,72,30.04,10.0,South,12.7,-,N/A,,Clear,190,2013-01-07 13:55:00
8:15 AM,32.4,23.7,70,30.04,10.0,South,18.4,-,N/A,,Clear,190,2013-01-07 14:15:00
8:35 AM,33.4,23.9,68,30.04,10.0,SSW,13.8,-,N/A,,Clear,200,2013-01-07 14:35:00
8:55 AM,35.1,24.6,66,30.04,10.0,SSW,17.3,-,N/A,,Clear,200,2013-01-07 14:55:00
9:15 AM,36.0,25.0,64,30.03,10.0,SSW,16.1,27.6,N/A,,Clear,200,2013-01-07 15:15:00
9:35 AM,38.5,25.2,59,30.04,10.0,SSW,16.1,-,N/A,,Clear,210,2013-01-07 15:35:00
9:55 AM,38.8,25.5,59,30.06,10.0,Calm,Calm,-,N/A,,Clear,0,2013-01-07 15:55:00
10:15 AM,41.9,26.4,54,30.07,10.0,Calm,Calm,-,N/A,,Clear,0,2013-01-07 16:15:00
10:35 AM,43.0,26.4,52,30.07,10.0,SSW,10.4,-,N/A,,Clear,210,2013-01-07 16:35:00
10:55 AM,43.7,26.4,51,30.06,10.0,SSW,9.2,16.1,N/A,,Clear,210,2013-01-07 16:55:00
11:15 AM,44.8,26.4,49,30.05,10.0,SW,15.0,24.2,N/A,,Clear,230,2013-01-07 17:15:00
11:35 AM,45.5,26.2,47,30.04,10.0,SW,18.4,24.2,N/A,,Clear,230,2013-01-07 17:35:00
11:55 AM,45.5,26.2,47,30.02,10.0,SW,19.6,-,N/A,,Clear,230,2013-01-07 17:55:00
12:15 PM,45.5,26.1,47,30.01,10.0,SW,21.9,28.8,N/A,,Clear,230,2013-01-07 18:15:00
12:35 PM,45.9,25.7,45,30.01,10.0,SW,20.7,28.8,N/A,,Clear,230,2013-01-07 18:35:00
12:55 PM,46.4,26.6,46,30.00,10.0,WSW,20.7,25.3,N/A,,Clear,240,2013-01-07 18:55:00
1:15 PM,46.4,26.8,46,29.99,10.0,SW,23.0,26.5,N/A,,Clear,230,2013-01-07 19:15:00
1:35 PM,46.4,26.4,46,29.99,10.0,WSW,23.0,27.6,N/A,,Clear,240,2013-01-07 19:35:00
1:55 PM,45.1,26.4,48,29.99,10.0,WSW,23.0,26.5,N/A,,Clear,240,2013-01-07 19:55:00
2:15 PM,45.9,27.1,48,29.99,10.0,WSW,16.1,-,N/A,,Clear,240,2013-01-07 20:15:00
2:35 PM,45.0,27.5,50,29.99,10.0,WSW,10.4,-,N/A,,Clear,250,2013-01-07 20:35:00
2:55 PM,44.8,28.0,52,29.99,10.0,WSW,12.7,-,N/A,,Clear,250,2013-01-07 20:55:00
3:15 PM,44.6,28.2,53,29.99,10.0,West,11.5,18.4,N/A,,Clear,260,2013-01-07 21:15:00
3:35 PM,44.1,28.6,55,30.00,10.0,WSW,8.1,-,N/A,,Clear,250,2013-01-07 21:35:00
3:55 PM,43.7,29.1,57,30.00,10.0,Calm,Calm,-,N/A,,Clear,0,2013-01-07 21:55:00
4:15 PM,42.4,29.1,59,29.99,10.0,Calm,Calm,-,N/A,,Clear,0,2013-01-07 22:15:00
4:35 PM,41.0,28.9,62,29.99,10.0,Calm,Calm,-,N/A,,Clear,0,2013-01-07 22:35:00
4:55 PM,40.3,28.4,63,29.99,10.0,Calm,Calm,-,N/A,,Clear,0,2013-01-07 22:55:00
5:15 PM,38.7,28.0,66,29.98,10.0,Calm,Calm,-,N/A,,Clear,0,2013-01-07 23:15:00
5:35 PM,35.8,26.8,70,29.98,10.0,Calm,Calm,-,N/A,,Clear,0,2013-01-07 23:35:00
5:55 PM,34.7,27.3,74,29.98,10.0,Calm,Calm,-,N/A,,Clear,0,2013-01-07 23:55:00
6:15 PM,36.1,27.3,70,29.98,10.0,Calm,Calm,-,N/A,,Clear,0,2013-01-08 00:15:00
6:35 PM,36.1,27.3,70,29.99,10.0,Calm,Calm,-,N/A,,Clear,0,2013-01-08 00:35:00
6:55 PM,36.1,27.5,71,30.00,10.0,Calm,Calm,-,N/A,,Clear,0,2013-01-08 00:55:00
7:15 PM,36.0,27.5,71,30.00,10.0,Calm,Calm,-,N/A,,Clear,0,2013-01-08 01:15:00
7:35 PM,36.1,28.2,73,29.99,10.0,Calm,Calm,-,N/A,,Clear,0,2013-01-08 01:35:00
7:55 PM,36.7,28.4,72,29.99,10.0,Calm,Calm,-,N/A,,Clear,0,2013-01-08 01:55:00
8:15 PM,37.6,28.8,70,29.99,10.0,Calm,Calm,-,N/A,,Clear,0,2013-01-08 02:15:00
8:35 PM,36.5,27.9,71,29.98,10.0,Calm,Calm,-,N/A,,Clear,0,2013-01-08 02:35:00
8:55 PM,35.6,28.4,75,29.98,10.0,Calm,Calm,-,N/A,,Clear,0,2013-01-08 02:55:00
9:15 PM,34.7,28.2,77,29.98,10.0,Calm,Calm,-,N/A,,Clear,0,2013-01-08 03:15:00
9:35 PM,32.0,27.0,82,29.98,10.0,Calm,Calm,-,N/A,,Clear,0,2013-01-08 03:35:00
9:55 PM,33.1,28.4,83,29.97,10.0,Calm,Calm,-,N/A,,Clear,0,2013-01-08 03:55:00
10:15 PM,33.4,28.0,81,29.97,10.0,Calm,Calm,-,N/A,,Clear,0,2013-01-08 04:15:00
10:35 PM,32.7,26.8,79,29.96,10.0,Calm,Calm,-,N/A,,Clear,0,2013-01-08 04:35:00
10:55 PM,30.0,26.1,85,29.96,10.0,Calm,Calm,-,N/A,,Clear,0,2013-01-08 04:55:00
11:15 PM,30.6,26.4,85,29.96,10.0,Calm,Calm,-,N/A,,Clear,0,2013-01-08 05:15:00
11:35 PM,29.3,25.5,86,29.95,10.0,Calm,Calm,-,N/A,,Clear,0,2013-01-08 05:35:00
11:55 PM,28.0,24.6,87,29.95,10.0,Calm,Calm,-,N/A,,Clear,0,2013-01-08 05:55:00